sensor_id;sensor_type;location;lat;lon;timestamp;P1;durP1;ratioP1;P2;durP2;ratioP2
45618;SDS011;31343;47.520;19.144;2023-07-02T00:01:11;5.60;;;3.65;;
45618;SDS011;31343;47.520;19.144;2023-07-02T00:03:39;5.07;;;3.65;;
45618;SDS011;31343;47.520;19.144;2023-07-02T00:06:05;6.85;;;2.85;;
45618;SDS011;31343;47.520;19.144;2023-07-02T00:08:31;3.33;;;3.03;;
45618;SDS011;31343;47.520;19.144;2023-07-02T00:10:57;5.10;;;3.70;;
45618;SDS011;31343;47.520;19.144;2023-07-02T00:13:24;3.50;;;1.88;;
45618;SDS011;31343;47.520;19.144;2023-07-02T00:15:50;5.00;;;3.60;;
45618;SDS011;31343;47.520;19.144;2023-07-02T00:18:16;6.95;;;3.83;;
45618;SDS011;31343;47.520;19.144;2023-07-02T00:20:42;5.25;;;2.97;;
45618;SDS011;31343;47.520;19.144;2023-07-02T00:23:08;4.57;;;3.13;;
45618;SDS011;31343;47.520;19.144;2023-07-02T00:25:35;3.90;;;2.50;;
45618;SDS011;31343;47.520;19.144;2023-07-02T00:28:01;3.38;;;2.50;;
45618;SDS011;31343;47.520;19.144;2023-07-02T00:30:28;6.40;;;3.40;;
45618;SDS011;31343;47.520;19.144;2023-07-02T00:32:55;6.10;;;2.50;;
45618;SDS011;31343;47.520;19.144;2023-07-02T00:35:21;4.75;;;2.83;;
45618;SDS011;31343;47.520;19.144;2023-07-02T00:37:47;5.28;;;2.22;;
45618;SDS011;31343;47.520;19.144;2023-07-02T00:40:14;6.00;;;2.92;;
45618;SDS011;31343;47.520;19.144;2023-07-02T00:42:39;4.03;;;2.70;;
45618;SDS011;31343;47.520;19.144;2023-07-02T00:45:05;4.05;;;2.88;;
45618;SDS011;31343;47.520;19.144;2023-07-02T00:47:34;5.55;;;2.88;;
45618;SDS011;31343;47.520;19.144;2023-07-02T00:50:00;9.75;;;3.22;;
45618;SDS011;31343;47.520;19.144;2023-07-02T00:52:27;4.70;;;2.85;;
45618;SDS011;31343;47.520;19.144;2023-07-02T00:54:53;5.80;;;2.88;;
45618;SDS011;31343;47.520;19.144;2023-07-02T00:57:19;5.80;;;3.10;;
45618;SDS011;31343;47.520;19.144;2023-07-02T00:59:45;4.53;;;3.33;;
45618;SDS011;31343;47.520;19.144;2023-07-02T01:02:11;4.70;;;3.10;;
45618;SDS011;31343;47.520;19.144;2023-07-02T01:04:38;5.32;;;3.53;;
45618;SDS011;31343;47.520;19.144;2023-07-02T01:07:04;8.30;;;4.30;;
45618;SDS011;31343;47.520;19.144;2023-07-02T01:09:35;6.55;;;3.50;;
45618;SDS011;31343;47.520;19.144;2023-07-02T01:12:05;3.83;;;2.60;;
45618;SDS011;31343;47.520;19.144;2023-07-02T01:14:34;4.70;;;2.85;;
45618;SDS011;31343;47.520;19.144;2023-07-02T01:17:06;4.43;;;2.30;;
45618;SDS011;31343;47.520;19.144;2023-07-02T01:22:20;6.18;;;3.03;;
45618;SDS011;31343;47.520;19.144;2023-07-02T01:24:56;4.35;;;2.30;;
45618;SDS011;31343;47.520;19.144;2023-07-02T01:27:22;4.55;;;3.35;;
45618;SDS011;31343;47.520;19.144;2023-07-02T01:29:51;5.07;;;2.65;;
45618;SDS011;31343;47.520;19.144;2023-07-02T01:32:17;5.10;;;2.78;;
45618;SDS011;31343;47.520;19.144;2023-07-02T01:34:43;3.80;;;2.75;;
45618;SDS011;31343;47.520;19.144;2023-07-02T01:37:10;5.82;;;3.63;;
45618;SDS011;31343;47.520;19.144;2023-07-02T01:39:35;4.43;;;2.78;;
45618;SDS011;31343;47.520;19.144;2023-07-02T01:42:11;3.95;;;2.47;;
45618;SDS011;31343;47.520;19.144;2023-07-02T01:44:41;3.80;;;2.78;;
45618;SDS011;31343;47.520;19.144;2023-07-02T01:47:09;2.72;;;2.05;;
45618;SDS011;31343;47.520;19.144;2023-07-02T01:49:35;6.57;;;2.72;;
45618;SDS011;31343;47.520;19.144;2023-07-02T01:52:04;3.40;;;2.03;;
45618;SDS011;31343;47.520;19.144;2023-07-02T01:54:31;5.43;;;2.22;;
45618;SDS011;31343;47.520;19.144;2023-07-02T01:56:58;4.93;;;2.50;;
45618;SDS011;31343;47.520;19.144;2023-07-02T01:59:25;3.20;;;1.63;;
45618;SDS011;31343;47.520;19.144;2023-07-02T02:01:57;4.72;;;2.95;;
45618;SDS011;31343;47.520;19.144;2023-07-02T02:04:23;5.55;;;2.92;;
45618;SDS011;31343;47.520;19.144;2023-07-02T02:06:49;5.93;;;2.47;;
45618;SDS011;31343;47.520;19.144;2023-07-02T02:09:15;4.18;;;2.45;;
45618;SDS011;31343;47.520;19.144;2023-07-02T02:11:42;4.45;;;2.35;;
45618;SDS011;31343;47.520;19.144;2023-07-02T02:14:10;3.92;;;2.50;;
45618;SDS011;31343;47.520;19.144;2023-07-02T02:16:36;4.50;;;2.30;;
45618;SDS011;31343;47.520;19.144;2023-07-02T02:19:02;3.45;;;2.05;;
45618;SDS011;31343;47.520;19.144;2023-07-02T02:21:28;4.75;;;2.60;;
45618;SDS011;31343;47.520;19.144;2023-07-02T02:23:55;5.28;;;2.72;;
45618;SDS011;31343;47.520;19.144;2023-07-02T02:26:21;3.90;;;2.72;;
45618;SDS011;31343;47.520;19.144;2023-07-02T02:28:47;4.50;;;2.97;;
45618;SDS011;31343;47.520;19.144;2023-07-02T02:31:14;4.05;;;2.28;;
45618;SDS011;31343;47.520;19.144;2023-07-02T02:33:40;4.05;;;2.17;;
45618;SDS011;31343;47.520;19.144;2023-07-02T02:36:07;3.47;;;2.03;;
45618;SDS011;31343;47.520;19.144;2023-07-02T02:38:33;3.55;;;2.15;;
45618;SDS011;31343;47.520;19.144;2023-07-02T02:41:00;4.85;;;2.83;;
45618;SDS011;31343;47.520;19.144;2023-07-02T02:43:28;4.75;;;2.83;;
45618;SDS011;31343;47.520;19.144;2023-07-02T02:45:53;7.57;;;3.28;;
45618;SDS011;31343;47.520;19.144;2023-07-02T02:48:19;3.00;;;2.33;;
45618;SDS011;31343;47.520;19.144;2023-07-02T02:50:47;3.45;;;1.98;;
45618;SDS011;31343;47.520;19.144;2023-07-02T02:53:13;3.88;;;2.25;;
45618;SDS011;31343;47.520;19.144;2023-07-02T02:55:38;4.68;;;2.22;;
45618;SDS011;31343;47.520;19.144;2023-07-02T02:58:04;4.60;;;2.35;;
45618;SDS011;31343;47.520;19.144;2023-07-02T03:00:30;5.65;;;3.10;;
45618;SDS011;31343;47.520;19.144;2023-07-02T03:02:55;2.78;;;1.83;;
45618;SDS011;31343;47.520;19.144;2023-07-02T03:05:22;2.25;;;1.60;;
45618;SDS011;31343;47.520;19.144;2023-07-02T03:07:48;4.05;;;2.53;;
45618;SDS011;31343;47.520;19.144;2023-07-02T03:10:14;4.43;;;2.55;;
45618;SDS011;31343;47.520;19.144;2023-07-02T03:12:40;5.38;;;2.30;;
45618;SDS011;31343;47.520;19.144;2023-07-02T03:15:05;5.13;;;2.92;;
45618;SDS011;31343;47.520;19.144;2023-07-02T03:17:32;4.00;;;2.15;;
45618;SDS011;31343;47.520;19.144;2023-07-02T03:19:58;2.42;;;1.98;;
45618;SDS011;31343;47.520;19.144;2023-07-02T03:22:24;5.05;;;3.53;;
45618;SDS011;31343;47.520;19.144;2023-07-02T03:24:50;4.78;;;2.42;;
45618;SDS011;31343;47.520;19.144;2023-07-02T03:27:16;3.17;;;2.13;;
45618;SDS011;31343;47.520;19.144;2023-07-02T03:29:41;3.00;;;1.92;;
45618;SDS011;31343;47.520;19.144;2023-07-02T03:32:07;3.75;;;2.13;;
45618;SDS011;31343;47.520;19.144;2023-07-02T03:34:33;3.03;;;1.63;;
45618;SDS011;31343;47.520;19.144;2023-07-02T03:36:59;3.30;;;1.88;;
45618;SDS011;31343;47.520;19.144;2023-07-02T03:39:25;3.38;;;1.98;;
45618;SDS011;31343;47.520;19.144;2023-07-02T03:41:51;3.22;;;1.75;;
45618;SDS011;31343;47.520;19.144;2023-07-02T03:44:17;3.28;;;2.50;;
45618;SDS011;31343;47.520;19.144;2023-07-02T03:46:44;2.47;;;1.70;;
45618;SDS011;31343;47.520;19.144;2023-07-02T03:49:10;4.80;;;2.75;;
45618;SDS011;31343;47.520;19.144;2023-07-02T03:51:36;2.88;;;1.70;;
45618;SDS011;31343;47.520;19.144;2023-07-02T03:54:01;3.95;;;1.90;;
45618;SDS011;31343;47.520;19.144;2023-07-02T03:56:27;3.25;;;1.70;;
45618;SDS011;31343;47.520;19.144;2023-07-02T03:58:53;4.07;;;1.90;;
45618;SDS011;31343;47.520;19.144;2023-07-02T04:01:18;2.08;;;1.52;;
45618;SDS011;31343;47.520;19.144;2023-07-02T04:03:47;2.72;;;1.52;;
45618;SDS011;31343;47.520;19.144;2023-07-02T04:06:14;3.85;;;1.92;;
45618;SDS011;31343;47.520;19.144;2023-07-02T04:08:40;3.97;;;1.95;;
45618;SDS011;31343;47.520;19.144;2023-07-02T04:11:06;3.30;;;2.33;;
45618;SDS011;31343;47.520;19.144;2023-07-02T04:13:32;4.05;;;1.92;;
45618;SDS011;31343;47.520;19.144;2023-07-02T04:15:58;4.13;;;2.40;;
45618;SDS011;31343;47.520;19.144;2023-07-02T04:18:24;2.20;;;1.55;;
45618;SDS011;31343;47.520;19.144;2023-07-02T04:20:50;3.25;;;1.50;;
45618;SDS011;31343;47.520;19.144;2023-07-02T04:23:16;3.83;;;2.50;;
45618;SDS011;31343;47.520;19.144;2023-07-02T04:25:42;3.90;;;1.92;;
45618;SDS011;31343;47.520;19.144;2023-07-02T04:28:07;2.85;;;1.58;;
45618;SDS011;31343;47.520;19.144;2023-07-02T04:30:33;3.40;;;1.80;;
45618;SDS011;31343;47.520;19.144;2023-07-02T04:32:59;4.03;;;2.17;;
45618;SDS011;31343;47.520;19.144;2023-07-02T04:35:25;2.28;;;1.30;;
45618;SDS011;31343;47.520;19.144;2023-07-02T04:37:51;2.70;;;1.60;;
45618;SDS011;31343;47.520;19.144;2023-07-02T04:40:17;4.60;;;2.58;;
45618;SDS011;31343;47.520;19.144;2023-07-02T04:42:42;3.63;;;2.17;;
45618;SDS011;31343;47.520;19.144;2023-07-02T04:45:23;1.92;;;1.38;;
45618;SDS011;31343;47.520;19.144;2023-07-02T04:47:50;3.50;;;2.33;;
45618;SDS011;31343;47.520;19.144;2023-07-02T04:50:17;2.92;;;1.58;;
45618;SDS011;31343;47.520;19.144;2023-07-02T04:52:43;2.25;;;1.88;;
45618;SDS011;31343;47.520;19.144;2023-07-02T04:55:09;3.55;;;2.08;;
45618;SDS011;31343;47.520;19.144;2023-07-02T04:57:36;2.17;;;1.35;;
45618;SDS011;31343;47.520;19.144;2023-07-02T05:00:03;3.05;;;1.77;;
45618;SDS011;31343;47.520;19.144;2023-07-02T05:02:33;2.38;;;1.67;;
45618;SDS011;31343;47.520;19.144;2023-07-02T05:04:59;3.25;;;2.05;;
45618;SDS011;31343;47.520;19.144;2023-07-02T05:07:25;2.38;;;1.50;;
45618;SDS011;31343;47.520;19.144;2023-07-02T05:09:51;2.80;;;1.73;;
45618;SDS011;31343;47.520;19.144;2023-07-02T05:12:18;2.47;;;1.40;;
45618;SDS011;31343;47.520;19.144;2023-07-02T05:14:44;3.22;;;2.15;;
45618;SDS011;31343;47.520;19.144;2023-07-02T05:17:10;2.88;;;1.83;;
45618;SDS011;31343;47.520;19.144;2023-07-02T05:19:36;4.13;;;1.60;;
45618;SDS011;31343;47.520;19.144;2023-07-02T05:22:02;1.95;;;1.38;;
45618;SDS011;31343;47.520;19.144;2023-07-02T05:24:27;2.25;;;1.50;;
45618;SDS011;31343;47.520;19.144;2023-07-02T05:26:53;2.75;;;1.45;;
45618;SDS011;31343;47.520;19.144;2023-07-02T05:29:19;2.83;;;1.73;;
45618;SDS011;31343;47.520;19.144;2023-07-02T05:31:45;2.03;;;1.30;;
45618;SDS011;31343;47.520;19.144;2023-07-02T05:34:10;2.88;;;1.60;;
45618;SDS011;31343;47.520;19.144;2023-07-02T05:36:37;2.28;;;1.50;;
45618;SDS011;31343;47.520;19.144;2023-07-02T05:39:03;2.13;;;1.23;;
45618;SDS011;31343;47.520;19.144;2023-07-02T05:41:29;2.80;;;1.58;;
45618;SDS011;31343;47.520;19.144;2023-07-02T05:43:56;1.88;;;1.38;;
45618;SDS011;31343;47.520;19.144;2023-07-02T05:46:22;2.45;;;1.10;;
45618;SDS011;31343;47.520;19.144;2023-07-02T05:48:49;3.08;;;1.83;;
45618;SDS011;31343;47.520;19.144;2023-07-02T05:51:19;1.85;;;1.25;;
45618;SDS011;31343;47.520;19.144;2023-07-02T05:53:46;1.85;;;1.20;;
45618;SDS011;31343;47.520;19.144;2023-07-02T05:56:12;3.25;;;1.60;;
45618;SDS011;31343;47.520;19.144;2023-07-02T05:58:38;4.97;;;2.00;;
45618;SDS011;31343;47.520;19.144;2023-07-02T06:01:04;2.38;;;1.27;;
45618;SDS011;31343;47.520;19.144;2023-07-02T06:03:31;2.20;;;1.58;;
45618;SDS011;31343;47.520;19.144;2023-07-02T06:05:58;3.25;;;1.17;;
45618;SDS011;31343;47.520;19.144;2023-07-02T06:08:23;2.65;;;1.45;;
45618;SDS011;31343;47.520;19.144;2023-07-02T06:10:49;1.30;;;0.80;;
45618;SDS011;31343;47.520;19.144;2023-07-02T06:13:15;2.42;;;1.45;;
45618;SDS011;31343;47.520;19.144;2023-07-02T06:15:41;2.63;;;1.48;;
45618;SDS011;31343;47.520;19.144;2023-07-02T06:18:07;2.20;;;1.38;;
45618;SDS011;31343;47.520;19.144;2023-07-02T06:20:33;2.20;;;1.20;;
45618;SDS011;31343;47.520;19.144;2023-07-02T06:22:59;2.17;;;1.27;;
45618;SDS011;31343;47.520;19.144;2023-07-02T06:25:25;2.65;;;1.55;;
45618;SDS011;31343;47.520;19.144;2023-07-02T06:27:51;2.00;;;1.45;;
45618;SDS011;31343;47.520;19.144;2023-07-02T06:30:21;2.55;;;1.48;;
45618;SDS011;31343;47.520;19.144;2023-07-02T06:32:47;1.85;;;1.17;;
45618;SDS011;31343;47.520;19.144;2023-07-02T06:35:13;0.98;;;0.80;;
45618;SDS011;31343;47.520;19.144;2023-07-02T06:37:39;2.58;;;1.27;;
45618;SDS011;31343;47.520;19.144;2023-07-02T06:40:05;2.30;;;1.38;;
45618;SDS011;31343;47.520;19.144;2023-07-02T06:42:32;2.70;;;1.70;;
45618;SDS011;31343;47.520;19.144;2023-07-02T06:44:58;2.20;;;1.40;;
45618;SDS011;31343;47.520;19.144;2023-07-02T06:47:24;1.70;;;0.98;;
45618;SDS011;31343;47.520;19.144;2023-07-02T06:49:51;1.48;;;1.02;;
45618;SDS011;31343;47.520;19.144;2023-07-02T06:52:17;2.45;;;1.55;;
45618;SDS011;31343;47.520;19.144;2023-07-02T06:54:43;2.45;;;1.30;;
45618;SDS011;31343;47.520;19.144;2023-07-02T06:57:08;1.75;;;1.25;;
45618;SDS011;31343;47.520;19.144;2023-07-02T06:59:35;2.33;;;1.42;;
45618;SDS011;31343;47.520;19.144;2023-07-02T07:02:01;3.55;;;1.73;;
45618;SDS011;31343;47.520;19.144;2023-07-02T07:04:27;2.28;;;1.45;;
45618;SDS011;31343;47.520;19.144;2023-07-02T07:06:53;2.70;;;1.13;;
45618;SDS011;31343;47.520;19.144;2023-07-02T07:09:20;2.40;;;1.10;;
45618;SDS011;31343;47.520;19.144;2023-07-02T07:11:46;2.33;;;1.55;;
45618;SDS011;31343;47.520;19.144;2023-07-02T07:14:12;2.15;;;1.25;;
45618;SDS011;31343;47.520;19.144;2023-07-02T07:16:38;2.33;;;1.63;;
45618;SDS011;31343;47.520;19.144;2023-07-02T07:19:04;1.40;;;0.90;;
45618;SDS011;31343;47.520;19.144;2023-07-02T07:21:30;2.30;;;1.45;;
45618;SDS011;31343;47.520;19.144;2023-07-02T07:23:56;1.92;;;1.08;;
45618;SDS011;31343;47.520;19.144;2023-07-02T07:26:21;1.88;;;0.85;;
45618;SDS011;31343;47.520;19.144;2023-07-02T07:28:47;1.60;;;1.05;;
45618;SDS011;31343;47.520;19.144;2023-07-02T07:31:14;2.65;;;1.00;;
45618;SDS011;31343;47.520;19.144;2023-07-02T07:33:40;2.10;;;1.25;;
45618;SDS011;31343;47.520;19.144;2023-07-02T07:36:06;2.42;;;1.35;;
45618;SDS011;31343;47.520;19.144;2023-07-02T07:38:33;1.48;;;1.00;;
45618;SDS011;31343;47.520;19.144;2023-07-02T07:40:58;2.78;;;1.50;;
45618;SDS011;31343;47.520;19.144;2023-07-02T07:43:24;2.15;;;1.48;;
45618;SDS011;31343;47.520;19.144;2023-07-02T07:45:50;2.03;;;1.17;;
45618;SDS011;31343;47.520;19.144;2023-07-02T07:48:15;1.27;;;0.90;;
45618;SDS011;31343;47.520;19.144;2023-07-02T07:50:41;2.03;;;1.13;;
45618;SDS011;31343;47.520;19.144;2023-07-02T07:53:07;1.48;;;0.90;;
45618;SDS011;31343;47.520;19.144;2023-07-02T07:55:33;1.35;;;1.05;;
45618;SDS011;31343;47.520;19.144;2023-07-02T07:57:58;1.38;;;0.73;;
45618;SDS011;31343;47.520;19.144;2023-07-02T08:00:25;1.33;;;0.93;;
45618;SDS011;31343;47.520;19.144;2023-07-02T08:02:51;1.65;;;0.90;;
45618;SDS011;31343;47.520;19.144;2023-07-02T08:05:20;1.80;;;1.10;;
45618;SDS011;31343;47.520;19.144;2023-07-02T08:07:46;1.25;;;0.73;;
45618;SDS011;31343;47.520;19.144;2023-07-02T08:10:12;1.15;;;0.77;;
45618;SDS011;31343;47.520;19.144;2023-07-02T08:12:38;1.17;;;0.80;;
45618;SDS011;31343;47.520;19.144;2023-07-02T08:15:03;0.95;;;0.77;;
45618;SDS011;31343;47.520;19.144;2023-07-02T08:17:30;1.83;;;1.08;;
45618;SDS011;31343;47.520;19.144;2023-07-02T08:19:59;0.98;;;0.88;;
45618;SDS011;31343;47.520;19.144;2023-07-02T08:22:25;1.92;;;1.15;;
45618;SDS011;31343;47.520;19.144;2023-07-02T08:24:50;1.52;;;1.10;;
45618;SDS011;31343;47.520;19.144;2023-07-02T08:27:16;2.63;;;1.30;;
45618;SDS011;31343;47.520;19.144;2023-07-02T08:29:47;2.47;;;1.80;;
45618;SDS011;31343;47.520;19.144;2023-07-02T08:32:13;1.48;;;0.80;;
45618;SDS011;31343;47.520;19.144;2023-07-02T08:34:39;1.90;;;1.10;;
45618;SDS011;31343;47.520;19.144;2023-07-02T08:37:05;1.15;;;0.88;;
45618;SDS011;31343;47.520;19.144;2023-07-02T08:39:33;1.67;;;1.33;;
45618;SDS011;31343;47.520;19.144;2023-07-02T08:42:01;1.92;;;1.05;;
45618;SDS011;31343;47.520;19.144;2023-07-02T08:44:26;2.67;;;1.38;;
45618;SDS011;31343;47.520;19.144;2023-07-02T08:46:52;0.60;;;0.60;;
45618;SDS011;31343;47.520;19.144;2023-07-02T08:49:22;1.98;;;1.17;;
45618;SDS011;31343;47.520;19.144;2023-07-02T08:51:48;1.77;;;0.98;;
45618;SDS011;31343;47.520;19.144;2023-07-02T08:54:14;1.35;;;0.90;;
45618;SDS011;31343;47.520;19.144;2023-07-02T08:56:42;1.10;;;0.80;;
45618;SDS011;31343;47.520;19.144;2023-07-02T08:59:08;1.88;;;0.93;;
45618;SDS011;31343;47.520;19.144;2023-07-02T09:01:44;1.30;;;0.90;;
45618;SDS011;31343;47.520;19.144;2023-07-02T09:04:20;1.90;;;1.10;;
45618;SDS011;31343;47.520;19.144;2023-07-02T09:06:49;1.33;;;1.00;;
45618;SDS011;31343;47.520;19.144;2023-07-02T09:09:49;2.05;;;1.00;;
45618;SDS011;31343;47.520;19.144;2023-07-02T09:12:22;1.70;;;1.25;;
45618;SDS011;31343;47.520;19.144;2023-07-02T09:14:55;1.92;;;0.95;;
45618;SDS011;31343;47.520;19.144;2023-07-02T09:17:26;0.65;;;0.60;;
45618;SDS011;31343;47.520;19.144;2023-07-02T09:22:23;1.42;;;0.98;;
45618;SDS011;31343;47.520;19.144;2023-07-02T09:24:56;1.45;;;0.98;;
45618;SDS011;31343;47.520;19.144;2023-07-02T09:30:21;2.03;;;0.95;;
45618;SDS011;31343;47.520;19.144;2023-07-02T09:32:47;1.00;;;0.82;;
45618;SDS011;31343;47.520;19.144;2023-07-02T09:35:12;3.40;;;1.55;;
45618;SDS011;31343;47.520;19.144;2023-07-02T09:37:40;2.55;;;1.33;;
45618;SDS011;31343;47.520;19.144;2023-07-02T09:40:09;1.50;;;0.95;;
45618;SDS011;31343;47.520;19.144;2023-07-02T09:42:35;4.03;;;1.33;;
45618;SDS011;31343;47.520;19.144;2023-07-02T09:45:03;1.90;;;1.20;;
45618;SDS011;31343;47.520;19.144;2023-07-02T09:47:33;1.58;;;1.00;;
45618;SDS011;31343;47.520;19.144;2023-07-02T09:50:04;2.83;;;1.10;;
45618;SDS011;31343;47.520;19.144;2023-07-02T09:52:32;2.28;;;1.42;;
45618;SDS011;31343;47.520;19.144;2023-07-02T09:54:59;1.83;;;1.17;;
45618;SDS011;31343;47.520;19.144;2023-07-02T09:57:25;2.85;;;1.40;;
45618;SDS011;31343;47.520;19.144;2023-07-02T09:59:53;2.80;;;1.70;;
45618;SDS011;31343;47.520;19.144;2023-07-02T10:02:20;1.83;;;1.10;;
45618;SDS011;31343;47.520;19.144;2023-07-02T10:04:46;2.30;;;1.30;;
45618;SDS011;31343;47.520;19.144;2023-07-02T10:07:13;1.58;;;1.17;;
45618;SDS011;31343;47.520;19.144;2023-07-02T10:09:52;1.83;;;1.27;;
45618;SDS011;31343;47.520;19.144;2023-07-02T10:12:18;2.13;;;1.30;;
45618;SDS011;31343;47.520;19.144;2023-07-02T10:14:45;3.10;;;1.50;;
45618;SDS011;31343;47.520;19.144;2023-07-02T10:17:22;1.63;;;1.20;;
45618;SDS011;31343;47.520;19.144;2023-07-02T10:19:52;1.40;;;0.95;;
45618;SDS011;31343;47.520;19.144;2023-07-02T10:22:18;1.85;;;1.20;;
45618;SDS011;31343;47.520;19.144;2023-07-02T10:24:54;2.08;;;1.20;;
45618;SDS011;31343;47.520;19.144;2023-07-02T10:27:36;1.63;;;1.00;;
45618;SDS011;31343;47.520;19.144;2023-07-02T10:30:06;2.55;;;1.63;;
45618;SDS011;31343;47.520;19.144;2023-07-02T10:32:34;1.48;;;1.00;;
45618;SDS011;31343;47.520;19.144;2023-07-02T10:35:01;2.10;;;1.23;;
45618;SDS011;31343;47.520;19.144;2023-07-02T10:37:36;4.18;;;2.28;;
45618;SDS011;31343;47.520;19.144;2023-07-02T10:40:06;3.03;;;1.40;;
45618;SDS011;31343;47.520;19.144;2023-07-02T10:42:32;1.77;;;0.90;;
45618;SDS011;31343;47.520;19.144;2023-07-02T10:45:01;2.50;;;1.20;;
45618;SDS011;31343;47.520;19.144;2023-07-02T10:47:28;1.88;;;1.40;;
45618;SDS011;31343;47.520;19.144;2023-07-02T10:49:54;1.73;;;1.20;;
45618;SDS011;31343;47.520;19.144;2023-07-02T10:52:20;1.38;;;0.95;;
45618;SDS011;31343;47.520;19.144;2023-07-02T10:54:46;2.28;;;1.15;;
45618;SDS011;31343;47.520;19.144;2023-07-02T10:57:13;2.08;;;1.00;;
45618;SDS011;31343;47.520;19.144;2023-07-02T10:59:41;2.25;;;1.33;;
45618;SDS011;31343;47.520;19.144;2023-07-02T11:02:08;2.83;;;1.63;;
45618;SDS011;31343;47.520;19.144;2023-07-02T11:04:35;1.92;;;1.00;;
45618;SDS011;31343;47.520;19.144;2023-07-02T11:07:01;1.77;;;0.88;;
45618;SDS011;31343;47.520;19.144;2023-07-02T11:09:28;1.85;;;0.98;;
45618;SDS011;31343;47.520;19.144;2023-07-02T11:11:54;1.73;;;0.90;;
45618;SDS011;31343;47.520;19.144;2023-07-02T11:17:04;2.15;;;1.20;;
45618;SDS011;31343;47.520;19.144;2023-07-02T11:19:31;2.90;;;1.40;;
45618;SDS011;31343;47.520;19.144;2023-07-02T11:21:58;1.08;;;0.75;;
45618;SDS011;31343;47.520;19.144;2023-07-02T11:27:00;1.90;;;1.27;;
45618;SDS011;31343;47.520;19.144;2023-07-02T11:29:28;1.80;;;1.10;;
45618;SDS011;31343;47.520;19.144;2023-07-02T11:31:55;1.35;;;0.90;;
45618;SDS011;31343;47.520;19.144;2023-07-02T11:34:30;1.60;;;0.95;;
45618;SDS011;31343;47.520;19.144;2023-07-02T11:36:56;1.27;;;0.70;;
45618;SDS011;31343;47.520;19.144;2023-07-02T11:39:21;2.70;;;1.60;;
45618;SDS011;31343;47.520;19.144;2023-07-02T11:41:47;2.33;;;1.13;;
45618;SDS011;31343;47.520;19.144;2023-07-02T11:44:15;1.67;;;1.08;;
45618;SDS011;31343;47.520;19.144;2023-07-02T11:46:41;2.30;;;1.50;;
45618;SDS011;31343;47.520;19.144;2023-07-02T11:49:07;3.70;;;1.02;;
45618;SDS011;31343;47.520;19.144;2023-07-02T11:51:34;1.38;;;1.00;;
45618;SDS011;31343;47.520;19.144;2023-07-02T11:54:11;1.50;;;1.15;;
45618;SDS011;31343;47.520;19.144;2023-07-02T11:56:37;1.55;;;0.88;;
45618;SDS011;31343;47.520;19.144;2023-07-02T11:59:05;1.35;;;0.90;;
45618;SDS011;31343;47.520;19.144;2023-07-02T12:01:31;2.00;;;1.10;;
45618;SDS011;31343;47.520;19.144;2023-07-02T12:03:56;1.15;;;0.70;;
45618;SDS011;31343;47.520;19.144;2023-07-02T12:06:22;1.52;;;0.90;;
45618;SDS011;31343;47.520;19.144;2023-07-02T12:08:48;1.27;;;0.77;;
45618;SDS011;31343;47.520;19.144;2023-07-02T12:11:14;1.80;;;1.23;;
45618;SDS011;31343;47.520;19.144;2023-07-02T12:13:41;1.60;;;0.90;;
45618;SDS011;31343;47.520;19.144;2023-07-02T12:16:06;1.10;;;0.68;;
45618;SDS011;31343;47.520;19.144;2023-07-02T12:18:34;1.90;;;0.90;;
45618;SDS011;31343;47.520;19.144;2023-07-02T12:21:00;1.73;;;0.90;;
45618;SDS011;31343;47.520;19.144;2023-07-02T12:23:26;1.65;;;0.90;;
45618;SDS011;31343;47.520;19.144;2023-07-02T12:25:51;0.90;;;0.70;;
45618;SDS011;31343;47.520;19.144;2023-07-02T12:28:17;1.15;;;0.70;;
45618;SDS011;31343;47.520;19.144;2023-07-02T12:30:43;1.55;;;0.80;;
45618;SDS011;31343;47.520;19.144;2023-07-02T12:33:08;1.23;;;0.77;;
45618;SDS011;31343;47.520;19.144;2023-07-02T12:35:34;1.70;;;0.90;;
45618;SDS011;31343;47.520;19.144;2023-07-02T12:38:00;1.42;;;0.80;;
45618;SDS011;31343;47.520;19.144;2023-07-02T12:40:28;1.05;;;0.70;;
45618;SDS011;31343;47.520;19.144;2023-07-02T12:42:54;1.10;;;0.80;;
45618;SDS011;31343;47.520;19.144;2023-07-02T12:45:21;1.13;;;0.70;;
45618;SDS011;31343;47.520;19.144;2023-07-02T12:47:47;1.35;;;0.93;;
45618;SDS011;31343;47.520;19.144;2023-07-02T12:50:13;1.75;;;1.17;;
45618;SDS011;31343;47.520;19.144;2023-07-02T12:52:39;1.05;;;0.70;;
45618;SDS011;31343;47.520;19.144;2023-07-02T12:55:05;2.83;;;1.63;;
45618;SDS011;31343;47.520;19.144;2023-07-02T12:57:31;0.98;;;0.70;;
45618;SDS011;31343;47.520;19.144;2023-07-02T12:59:57;1.05;;;0.73;;
45618;SDS011;31343;47.520;19.144;2023-07-02T13:02:23;1.05;;;0.80;;
45618;SDS011;31343;47.520;19.144;2023-07-02T13:04:49;0.73;;;0.57;;
45618;SDS011;31343;47.520;19.144;2023-07-02T13:07:16;0.98;;;0.70;;
45618;SDS011;31343;47.520;19.144;2023-07-02T13:09:42;1.10;;;0.90;;
45618;SDS011;31343;47.520;19.144;2023-07-02T13:12:09;1.25;;;0.70;;
45618;SDS011;31343;47.520;19.144;2023-07-02T13:14:36;0.43;;;0.40;;
45618;SDS011;31343;47.520;19.144;2023-07-02T13:17:02;1.13;;;0.75;;
45618;SDS011;31343;47.520;19.144;2023-07-02T13:19:31;0.65;;;0.52;;
45618;SDS011;31343;47.520;19.144;2023-07-02T13:21:57;0.57;;;0.43;;
45618;SDS011;31343;47.520;19.144;2023-07-02T13:24:23;0.57;;;0.35;;
45618;SDS011;31343;47.520;19.144;2023-07-02T13:26:49;0.60;;;0.60;;
45618;SDS011;31343;47.520;19.144;2023-07-02T13:29:15;1.30;;;0.80;;
45618;SDS011;31343;47.520;19.144;2023-07-02T13:31:41;0.50;;;0.50;;
45618;SDS011;31343;47.520;19.144;2023-07-02T13:34:07;0.55;;;0.40;;
45618;SDS011;31343;47.520;19.144;2023-07-02T13:36:33;0.40;;;0.40;;
45618;SDS011;31343;47.520;19.144;2023-07-02T13:38:58;0.43;;;0.30;;
45618;SDS011;31343;47.520;19.144;2023-07-02T13:41:24;0.50;;;0.40;;
45618;SDS011;31343;47.520;19.144;2023-07-02T13:43:51;0.93;;;0.70;;
45618;SDS011;31343;47.520;19.144;2023-07-02T13:46:17;0.60;;;0.60;;
45618;SDS011;31343;47.520;19.144;2023-07-02T13:48:43;0.50;;;0.40;;
45618;SDS011;31343;47.520;19.144;2023-07-02T13:51:08;0.70;;;0.50;;
45618;SDS011;31343;47.520;19.144;2023-07-02T13:53:34;0.82;;;0.60;;
45618;SDS011;31343;47.520;19.144;2023-07-02T13:56:01;0.40;;;0.35;;
45618;SDS011;31343;47.520;19.144;2023-07-02T13:58:26;0.47;;;0.45;;
45618;SDS011;31343;47.520;19.144;2023-07-02T14:01:15;0.75;;;0.70;;
45618;SDS011;31343;47.520;19.144;2023-07-02T14:03:40;1.35;;;0.57;;
45618;SDS011;31343;47.520;19.144;2023-07-02T14:06:06;0.40;;;0.40;;
45618;SDS011;31343;47.520;19.144;2023-07-02T14:08:32;0.93;;;0.50;;
45618;SDS011;31343;47.520;19.144;2023-07-02T14:10:58;0.77;;;0.63;;
45618;SDS011;31343;47.520;19.144;2023-07-02T14:13:23;0.47;;;0.40;;
45618;SDS011;31343;47.520;19.144;2023-07-02T14:15:49;0.60;;;0.60;;
45618;SDS011;31343;47.520;19.144;2023-07-02T14:18:15;0.60;;;0.40;;
45618;SDS011;31343;47.520;19.144;2023-07-02T14:20:41;0.57;;;0.57;;
45618;SDS011;31343;47.520;19.144;2023-07-02T14:23:07;0.90;;;0.60;;
45618;SDS011;31343;47.520;19.144;2023-07-02T14:25:32;0.60;;;0.40;;
45618;SDS011;31343;47.520;19.144;2023-07-02T14:27:58;0.52;;;0.50;;
45618;SDS011;31343;47.520;19.144;2023-07-02T14:30:24;1.05;;;0.80;;
45618;SDS011;31343;47.520;19.144;2023-07-02T14:32:50;0.77;;;0.50;;
45618;SDS011;31343;47.520;19.144;2023-07-02T14:35:15;1.48;;;0.80;;
45618;SDS011;31343;47.520;19.144;2023-07-02T14:37:41;0.60;;;0.50;;
45618;SDS011;31343;47.520;19.144;2023-07-02T14:40:07;1.00;;;0.57;;
45618;SDS011;31343;47.520;19.144;2023-07-02T14:42:33;2.65;;;0.88;;
45618;SDS011;31343;47.520;19.144;2023-07-02T14:44:59;0.50;;;0.50;;